sensor_id;sensor_type;location;lat;lon;timestamp;P1;durP1;ratioP1;P2;durP2;ratioP2
81229;SDS011;70701;44.452;18.652;2024-03-25T00:00:11;116.73;;;58.00;;
81229;SDS011;70701;44.452;18.652;2024-03-25T00:02:39;127.67;;;62.57;;
81229;SDS011;70701;44.452;18.652;2024-03-25T00:05:06;135.57;;;64.43;;
81229;SDS011;70701;44.452;18.652;2024-03-25T00:07:38;127.67;;;61.30;;
81229;SDS011;70701;44.452;18.652;2024-03-25T00:10:04;133.07;;;65.23;;
81229;SDS011;70701;44.452;18.652;2024-03-25T00:12:34;113.43;;;56.50;;
81229;SDS011;70701;44.452;18.652;2024-03-25T00:15:00;117.60;;;54.60;;
81229;SDS011;70701;44.452;18.652;2024-03-25T00:17:26;108.23;;;54.33;;
81229;SDS011;70701;44.452;18.652;2024-03-25T00:19:54;116.17;;;56.60;;
81229;SDS011;70701;44.452;18.652;2024-03-25T00:22:20;126.33;;;57.33;;
81229;SDS011;70701;44.452;18.652;2024-03-25T00:24:47;113.43;;;57.27;;
81229;SDS011;70701;44.452;18.652;2024-03-25T00:27:13;127.20;;;60.93;;
81229;SDS011;70701;44.452;18.652;2024-03-25T00:29:39;141.83;;;64.83;;
81229;SDS011;70701;44.452;18.652;2024-03-25T00:32:05;144.97;;;67.97;;
81229;SDS011;70701;44.452;18.652;2024-03-25T00:34:32;136.20;;;61.63;;
81229;SDS011;70701;44.452;18.652;2024-03-25T00:36:59;140.03;;;63.23;;
81229;SDS011;70701;44.452;18.652;2024-03-25T00:39:25;105.10;;;49.43;;
81229;SDS011;70701;44.452;18.652;2024-03-25T00:41:54;106.90;;;48.90;;
81229;SDS011;70701;44.452;18.652;2024-03-25T00:44:20;102.73;;;51.50;;
81229;SDS011;70701;44.452;18.652;2024-03-25T00:46:45;108.17;;;50.67;;
81229;SDS011;70701;44.452;18.652;2024-03-25T00:49:11;105.07;;;50.83;;
81229;SDS011;70701;44.452;18.652;2024-03-25T00:51:37;87.27;;;46.47;;
81229;SDS011;70701;44.452;18.652;2024-03-25T00:54:03;91.73;;;44.67;;
81229;SDS011;70701;44.452;18.652;2024-03-25T00:56:30;88.97;;;42.37;;
81229;SDS011;70701;44.452;18.652;2024-03-25T00:58:56;88.83;;;41.80;;
81229;SDS011;70701;44.452;18.652;2024-03-25T01:01:23;75.63;;;39.70;;
81229;SDS011;70701;44.452;18.652;2024-03-25T01:03:49;75.00;;;36.83;;
81229;SDS011;70701;44.452;18.652;2024-03-25T01:06:14;67.27;;;34.50;;
81229;SDS011;70701;44.452;18.652;2024-03-25T01:08:40;76.53;;;35.87;;
81229;SDS011;70701;44.452;18.652;2024-03-25T01:11:06;73.67;;;37.10;;
81229;SDS011;70701;44.452;18.652;2024-03-25T01:13:31;76.90;;;35.97;;
81229;SDS011;70701;44.452;18.652;2024-03-25T01:15:57;70.50;;;35.07;;
81229;SDS011;70701;44.452;18.652;2024-03-25T01:18:22;66.90;;;33.50;;
81229;SDS011;70701;44.452;18.652;2024-03-25T01:20:48;66.93;;;32.23;;
81229;SDS011;70701;44.452;18.652;2024-03-25T01:23:15;69.80;;;32.97;;
81229;SDS011;70701;44.452;18.652;2024-03-25T01:25:41;63.77;;;33.70;;
81229;SDS011;70701;44.452;18.652;2024-03-25T01:28:06;59.87;;;28.43;;
81229;SDS011;70701;44.452;18.652;2024-03-25T01:30:32;52.70;;;25.60;;
81229;SDS011;70701;44.452;18.652;2024-03-25T01:33:00;45.10;;;25.87;;
81229;SDS011;70701;44.452;18.652;2024-03-25T01:35:26;42.70;;;22.83;;
81229;SDS011;70701;44.452;18.652;2024-03-25T01:37:52;54.73;;;26.37;;
81229;SDS011;70701;44.452;18.652;2024-03-25T01:40:18;51.80;;;25.27;;
81229;SDS011;70701;44.452;18.652;2024-03-25T01:42:44;41.00;;;19.37;;
81229;SDS011;70701;44.452;18.652;2024-03-25T01:45:20;32.37;;;17.23;;
81229;SDS011;70701;44.452;18.652;2024-03-25T01:47:46;56.23;;;27.60;;
81229;SDS011;70701;44.452;18.652;2024-03-25T01:50:12;77.50;;;36.13;;
81229;SDS011;70701;44.452;18.652;2024-03-25T01:52:38;78.03;;;37.07;;
81229;SDS011;70701;44.452;18.652;2024-03-25T01:55:06;87.40;;;38.70;;
81229;SDS011;70701;44.452;18.652;2024-03-25T01:57:35;74.10;;;36.10;;
81229;SDS011;70701;44.452;18.652;2024-03-25T02:00:03;73.47;;;36.70;;
81229;SDS011;70701;44.452;18.652;2024-03-25T02:02:34;72.50;;;35.63;;
81229;SDS011;70701;44.452;18.652;2024-03-25T02:05:02;70.40;;;33.93;;
81229;SDS011;70701;44.452;18.652;2024-03-25T02:07:28;74.97;;;35.27;;
81229;SDS011;70701;44.452;18.652;2024-03-25T02:09:56;66.37;;;34.90;;
81229;SDS011;70701;44.452;18.652;2024-03-25T02:12:22;68.87;;;32.03;;
81229;SDS011;70701;44.452;18.652;2024-03-25T02:14:49;81.40;;;35.60;;
81229;SDS011;70701;44.452;18.652;2024-03-25T02:17:15;72.60;;;33.43;;
81229;SDS011;70701;44.452;18.652;2024-03-25T02:19:40;63.17;;;29.20;;
81229;SDS011;70701;44.452;18.652;2024-03-25T02:22:06;70.83;;;32.87;;
81229;SDS011;70701;44.452;18.652;2024-03-25T02:24:32;68.23;;;31.33;;
81229;SDS011;70701;44.452;18.652;2024-03-25T02:26:58;62.77;;;32.03;;
81229;SDS011;70701;44.452;18.652;2024-03-25T02:29:32;70.10;;;32.07;;
81229;SDS011;70701;44.452;18.652;2024-03-25T02:31:58;69.13;;;32.57;;
81229;SDS011;70701;44.452;18.652;2024-03-25T02:34:24;77.13;;;34.00;;
81229;SDS011;70701;44.452;18.652;2024-03-25T02:36:51;72.70;;;34.03;;
81229;SDS011;70701;44.452;18.652;2024-03-25T02:39:17;75.07;;;33.83;;
81229;SDS011;70701;44.452;18.652;2024-03-25T02:41:43;65.13;;;35.57;;
81229;SDS011;70701;44.452;18.652;2024-03-25T02:44:09;80.03;;;34.07;;
81229;SDS011;70701;44.452;18.652;2024-03-25T02:46:34;55.80;;;26.27;;
81229;SDS011;70701;44.452;18.652;2024-03-25T02:49:00;56.27;;;26.60;;
81229;SDS011;70701;44.452;18.652;2024-03-25T02:51:25;61.27;;;26.80;;
81229;SDS011;70701;44.452;18.652;2024-03-25T02:53:51;61.40;;;27.70;;
81229;SDS011;70701;44.452;18.652;2024-03-25T02:56:17;55.30;;;27.73;;
81229;SDS011;70701;44.452;18.652;2024-03-25T02:58:42;57.80;;;28.20;;
81229;SDS011;70701;44.452;18.652;2024-03-25T03:01:11;55.87;;;26.30;;
81229;SDS011;70701;44.452;18.652;2024-03-25T03:03:36;56.27;;;27.03;;
81229;SDS011;70701;44.452;18.652;2024-03-25T03:06:02;56.43;;;27.43;;
81229;SDS011;70701;44.452;18.652;2024-03-25T03:08:28;54.83;;;27.60;;
81229;SDS011;70701;44.452;18.652;2024-03-25T03:10:53;52.47;;;25.57;;
81229;SDS011;70701;44.452;18.652;2024-03-25T03:13:19;52.07;;;24.73;;
81229;SDS011;70701;44.452;18.652;2024-03-25T03:15:44;52.67;;;24.57;;
81229;SDS011;70701;44.452;18.652;2024-03-25T03:18:10;45.90;;;24.40;;
81229;SDS011;70701;44.452;18.652;2024-03-25T03:20:36;56.43;;;25.43;;
81229;SDS011;70701;44.452;18.652;2024-03-25T03:23:02;45.80;;;23.50;;
81229;SDS011;70701;44.452;18.652;2024-03-25T03:25:27;48.40;;;23.13;;
81229;SDS011;70701;44.452;18.652;2024-03-25T03:27:54;52.93;;;22.60;;
81229;SDS011;70701;44.452;18.652;2024-03-25T03:30:21;50.07;;;22.83;;
81229;SDS011;70701;44.452;18.652;2024-03-25T03:32:47;54.37;;;23.03;;
81229;SDS011;70701;44.452;18.652;2024-03-25T03:35:12;50.80;;;22.43;;
81229;SDS011;70701;44.452;18.652;2024-03-25T03:37:38;42.73;;;20.70;;
81229;SDS011;70701;44.452;18.652;2024-03-25T03:40:03;39.87;;;18.37;;
81229;SDS011;70701;44.452;18.652;2024-03-25T03:42:32;38.73;;;18.13;;
81229;SDS011;70701;44.452;18.652;2024-03-25T03:44:58;38.17;;;18.60;;
81229;SDS011;70701;44.452;18.652;2024-03-25T03:47:24;38.07;;;19.33;;
81229;SDS011;70701;44.452;18.652;2024-03-25T03:49:49;43.20;;;19.13;;
81229;SDS011;70701;44.452;18.652;2024-03-25T03:52:15;50.93;;;22.43;;
81229;SDS011;70701;44.452;18.652;2024-03-25T03:54:40;42.53;;;20.87;;
81229;SDS011;70701;44.452;18.652;2024-03-25T03:57:06;41.93;;;19.77;;
81229;SDS011;70701;44.452;18.652;2024-03-25T03:59:32;43.10;;;22.40;;
81229;SDS011;70701;44.452;18.652;2024-03-25T04:01:57;41.10;;;20.43;;
81229;SDS011;70701;44.452;18.652;2024-03-25T04:04:23;46.27;;;22.27;;
81229;SDS011;70701;44.452;18.652;2024-03-25T04:06:48;38.53;;;20.23;;
81229;SDS011;70701;44.452;18.652;2024-03-25T04:09:14;46.07;;;22.27;;
81229;SDS011;70701;44.452;18.652;2024-03-25T04:11:40;42.83;;;21.27;;
81229;SDS011;70701;44.452;18.652;2024-03-25T04:14:05;37.63;;;19.17;;
81229;SDS011;70701;44.452;18.652;2024-03-25T04:16:31;37.57;;;20.63;;
81229;SDS011;70701;44.452;18.652;2024-03-25T04:18:57;40.37;;;20.10;;
81229;SDS011;70701;44.452;18.652;2024-03-25T04:21:23;49.17;;;22.40;;
81229;SDS011;70701;44.452;18.652;2024-03-25T04:23:49;37.83;;;20.57;;
81229;SDS011;70701;44.452;18.652;2024-03-25T04:26:15;39.67;;;20.53;;
81229;SDS011;70701;44.452;18.652;2024-03-25T04:28:40;40.33;;;19.33;;
81229;SDS011;70701;44.452;18.652;2024-03-25T04:31:08;35.97;;;19.60;;
81229;SDS011;70701;44.452;18.652;2024-03-25T04:33:34;40.00;;;19.43;;
81229;SDS011;70701;44.452;18.652;2024-03-25T04:36:00;43.40;;;20.73;;
81229;SDS011;70701;44.452;18.652;2024-03-25T04:38:25;40.50;;;20.27;;
81229;SDS011;70701;44.452;18.652;2024-03-25T04:40:51;37.77;;;19.13;;
81229;SDS011;70701;44.452;18.652;2024-03-25T04:43:17;37.93;;;19.30;;
81229;SDS011;70701;44.452;18.652;2024-03-25T04:45:42;37.03;;;19.63;;
81229;SDS011;70701;44.452;18.652;2024-03-25T04:48:08;34.17;;;17.93;;
81229;SDS011;70701;44.452;18.652;2024-03-25T04:50:35;39.73;;;19.37;;
81229;SDS011;70701;44.452;18.652;2024-03-25T04:53:01;39.27;;;20.07;;
81229;SDS011;70701;44.452;18.652;2024-03-25T04:55:27;39.87;;;22.47;;
81229;SDS011;70701;44.452;18.652;2024-03-25T04:57:53;47.13;;;24.13;;
81229;SDS011;70701;44.452;18.652;2024-03-25T05:00:18;49.67;;;22.77;;
81229;SDS011;70701;44.452;18.652;2024-03-25T05:02:44;40.47;;;19.60;;
81229;SDS011;70701;44.452;18.652;2024-03-25T05:05:10;40.57;;;20.37;;
81229;SDS011;70701;44.452;18.652;2024-03-25T05:07:36;52.23;;;21.23;;
81229;SDS011;70701;44.452;18.652;2024-03-25T05:10:02;40.97;;;18.93;;
81229;SDS011;70701;44.452;18.652;2024-03-25T05:12:28;42.10;;;21.00;;
81229;SDS011;70701;44.452;18.652;2024-03-25T05:14:55;49.83;;;25.30;;
81229;SDS011;70701;44.452;18.652;2024-03-25T05:17:21;70.03;;;34.60;;
81229;SDS011;70701;44.452;18.652;2024-03-25T05:19:47;86.53;;;41.60;;
81229;SDS011;70701;44.452;18.652;2024-03-25T05:22:13;74.17;;;40.03;;
81229;SDS011;70701;44.452;18.652;2024-03-25T05:24:38;71.70;;;36.73;;
81229;SDS011;70701;44.452;18.652;2024-03-25T05:27:04;64.80;;;30.60;;
81229;SDS011;70701;44.452;18.652;2024-03-25T05:29:30;47.77;;;25.83;;
81229;SDS011;70701;44.452;18.652;2024-03-25T05:31:59;48.10;;;21.87;;
81229;SDS011;70701;44.452;18.652;2024-03-25T05:34:26;47.70;;;22.33;;
81229;SDS011;70701;44.452;18.652;2024-03-25T05:36:53;46.13;;;24.13;;
81229;SDS011;70701;44.452;18.652;2024-03-25T05:39:19;58.93;;;29.57;;
81229;SDS011;70701;44.452;18.652;2024-03-25T05:41:45;60.90;;;27.70;;
81229;SDS011;70701;44.452;18.652;2024-03-25T05:44:12;56.13;;;26.70;;
81229;SDS011;70701;44.452;18.652;2024-03-25T05:46:38;53.37;;;26.13;;
81229;SDS011;70701;44.452;18.652;2024-03-25T05:49:05;58.73;;;28.83;;
81229;SDS011;70701;44.452;18.652;2024-03-25T05:51:31;61.80;;;30.10;;
81229;SDS011;70701;44.452;18.652;2024-03-25T05:54:00;53.27;;;27.30;;
81229;SDS011;70701;44.452;18.652;2024-03-25T05:56:26;56.23;;;27.77;;
81229;SDS011;70701;44.452;18.652;2024-03-25T05:58:58;45.30;;;22.67;;
81229;SDS011;70701;44.452;18.652;2024-03-25T06:01:24;45.20;;;22.50;;
81229;SDS011;70701;44.452;18.652;2024-03-25T06:03:50;48.77;;;22.03;;
81229;SDS011;70701;44.452;18.652;2024-03-25T06:06:18;48.90;;;23.93;;
81229;SDS011;70701;44.452;18.652;2024-03-25T06:08:44;55.27;;;23.97;;
81229;SDS011;70701;44.452;18.652;2024-03-25T06:11:09;54.20;;;25.30;;
81229;SDS011;70701;44.452;18.652;2024-03-25T06:13:35;55.00;;;27.83;;
81229;SDS011;70701;44.452;18.652;2024-03-25T06:16:01;55.70;;;25.67;;
81229;SDS011;70701;44.452;18.652;2024-03-25T06:18:27;61.07;;;29.23;;
81229;SDS011;70701;44.452;18.652;2024-03-25T06:20:52;67.67;;;30.43;;
81229;SDS011;70701;44.452;18.652;2024-03-25T06:23:22;53.90;;;27.57;;
81229;SDS011;70701;44.452;18.652;2024-03-25T06:25:51;64.03;;;27.73;;
81229;SDS011;70701;44.452;18.652;2024-03-25T06:28:18;55.50;;;26.83;;
81229;SDS011;70701;44.452;18.652;2024-03-25T06:30:45;63.97;;;31.07;;
81229;SDS011;70701;44.452;18.652;2024-03-25T06:33:30;76.00;;;32.87;;
81229;SDS011;70701;44.452;18.652;2024-03-25T06:36:15;68.17;;;31.80;;
81229;SDS011;70701;44.452;18.652;2024-03-25T06:38:41;67.37;;;31.07;;
81229;SDS011;70701;44.452;18.652;2024-03-25T06:41:07;65.07;;;32.77;;
81229;SDS011;70701;44.452;18.652;2024-03-25T06:43:32;84.20;;;37.50;;
81229;SDS011;70701;44.452;18.652;2024-03-25T06:45:58;70.93;;;36.73;;
81229;SDS011;70701;44.452;18.652;2024-03-25T06:48:23;69.60;;;35.13;;
81229;SDS011;70701;44.452;18.652;2024-03-25T06:50:55;74.17;;;36.10;;
81229;SDS011;70701;44.452;18.652;2024-03-25T06:53:22;78.13;;;37.97;;
81229;SDS011;70701;44.452;18.652;2024-03-25T06:55:51;71.77;;;38.27;;
81229;SDS011;70701;44.452;18.652;2024-03-25T06:58:18;67.57;;;35.10;;
81229;SDS011;70701;44.452;18.652;2024-03-25T07:00:44;69.30;;;33.67;;
81229;SDS011;70701;44.452;18.652;2024-03-25T07:03:10;67.50;;;32.63;;
81229;SDS011;70701;44.452;18.652;2024-03-25T07:05:35;84.23;;;40.60;;
81229;SDS011;70701;44.452;18.652;2024-03-25T07:08:01;96.77;;;45.67;;
81229;SDS011;70701;44.452;18.652;2024-03-25T07:10:27;91.57;;;47.23;;
81229;SDS011;70701;44.452;18.652;2024-03-25T07:12:53;84.60;;;40.90;;
81229;SDS011;70701;44.452;18.652;2024-03-25T07:15:18;65.67;;;33.63;;
81229;SDS011;70701;44.452;18.652;2024-03-25T07:17:45;67.07;;;33.87;;
81229;SDS011;70701;44.452;18.652;2024-03-25T07:20:10;64.37;;;32.33;;
81229;SDS011;70701;44.452;18.652;2024-03-25T07:22:36;66.73;;;32.93;;
81229;SDS011;70701;44.452;18.652;2024-03-25T07:25:01;64.90;;;33.03;;
81229;SDS011;70701;44.452;18.652;2024-03-25T07:27:27;67.43;;;33.30;;
81229;SDS011;70701;44.452;18.652;2024-03-25T07:29:53;71.53;;;33.67;;
81229;SDS011;70701;44.452;18.652;2024-03-25T07:32:18;52.37;;;27.80;;
81229;SDS011;70701;44.452;18.652;2024-03-25T07:34:44;52.57;;;25.63;;
81229;SDS011;70701;44.452;18.652;2024-03-25T07:37:11;47.63;;;23.30;;
81229;SDS011;70701;44.452;18.652;2024-03-25T07:39:36;37.90;;;21.63;;
81229;SDS011;70701;44.452;18.652;2024-03-25T07:42:02;39.23;;;22.13;;
81229;SDS011;70701;44.452;18.652;2024-03-25T07:44:28;54.10;;;25.10;;
81229;SDS011;70701;44.452;18.652;2024-03-25T07:46:53;43.70;;;21.60;;
81229;SDS011;70701;44.452;18.652;2024-03-25T07:49:20;62.67;;;32.73;;
81229;SDS011;70701;44.452;18.652;2024-03-25T07:51:46;67.00;;;36.00;;
81229;SDS011;70701;44.452;18.652;2024-03-25T07:54:12;43.97;;;22.97;;
81229;SDS011;70701;44.452;18.652;2024-03-25T07:56:41;54.07;;;28.73;;
81229;SDS011;70701;44.452;18.652;2024-03-25T07:59:07;28.57;;;15.63;;
81229;SDS011;70701;44.452;18.652;2024-03-25T08:01:34;26.67;;;15.13;;
81229;SDS011;70701;44.452;18.652;2024-03-25T08:04:00;25.57;;;15.13;;
81229;SDS011;70701;44.452;18.652;2024-03-25T08:06:27;23.43;;;14.37;;
81229;SDS011;70701;44.452;18.652;2024-03-25T08:08:53;27.50;;;14.60;;
81229;SDS011;70701;44.452;18.652;2024-03-25T08:11:19;31.00;;;16.50;;
81229;SDS011;70701;44.452;18.652;2024-03-25T08:13:45;27.17;;;15.00;;
81229;SDS011;70701;44.452;18.652;2024-03-25T08:16:10;26.60;;;16.27;;
81229;SDS011;70701;44.452;18.652;2024-03-25T08:18:36;30.60;;;17.63;;
81229;SDS011;70701;44.452;18.652;2024-03-25T08:21:02;32.77;;;17.30;;
81229;SDS011;70701;44.452;18.652;2024-03-25T08:23:27;26.97;;;14.27;;
81229;SDS011;70701;44.452;18.652;2024-03-25T08:25:53;34.63;;;18.97;;
81229;SDS011;70701;44.452;18.652;2024-03-25T08:28:19;35.57;;;20.03;;
81229;SDS011;70701;44.452;18.652;2024-03-25T08:30:44;26.23;;;15.57;;
81229;SDS011;70701;44.452;18.652;2024-03-25T08:33:10;27.47;;;15.60;;
81229;SDS011;70701;44.452;18.652;2024-03-25T08:35:36;31.60;;;17.43;;
81229;SDS011;70701;44.452;18.652;2024-03-25T08:38:03;27.00;;;17.13;;
81229;SDS011;70701;44.452;18.652;2024-03-25T08:40:29;28.07;;;17.97;;
81229;SDS011;70701;44.452;18.652;2024-03-25T08:42:54;33.40;;;20.07;;
81229;SDS011;70701;44.452;18.652;2024-03-25T08:45:20;39.23;;;22.73;;
81229;SDS011;70701;44.452;18.652;2024-03-25T08:47:45;42.03;;;21.50;;
81229;SDS011;70701;44.452;18.652;2024-03-25T08:50:11;25.20;;;15.83;;
81229;SDS011;70701;44.452;18.652;2024-03-25T08:52:37;26.80;;;15.90;;
81229;SDS011;70701;44.452;18.652;2024-03-25T08:55:05;25.20;;;14.70;;
81229;SDS011;70701;44.452;18.652;2024-03-25T08:57:31;21.77;;;15.03;;
81229;SDS011;70701;44.452;18.652;2024-03-25T08:59:57;23.83;;;13.37;;
81229;SDS011;70701;44.452;18.652;2024-03-25T09:02:23;26.23;;;14.67;;
81229;SDS011;70701;44.452;18.652;2024-03-25T09:04:49;25.10;;;13.77;;
81229;SDS011;70701;44.452;18.652;2024-03-25T09:07:14;24.20;;;14.63;;
81229;SDS011;70701;44.452;18.652;2024-03-25T09:09:40;27.63;;;15.40;;
81229;SDS011;70701;44.452;18.652;2024-03-25T09:14:49;33.17;;;18.53;;
81229;SDS011;70701;44.452;18.652;2024-03-25T09:17:16;36.93;;;22.27;;
81229;SDS011;70701;44.452;18.652;2024-03-25T09:19:42;33.20;;;20.57;;
81229;SDS011;70701;44.452;18.652;2024-03-25T09:22:08;39.00;;;22.53;;
81229;SDS011;70701;44.452;18.652;2024-03-25T09:24:33;39.53;;;22.70;;
81229;SDS011;70701;44.452;18.652;2024-03-25T09:26:59;45.80;;;23.97;;
81229;SDS011;70701;44.452;18.652;2024-03-25T09:29:24;45.20;;;26.17;;
81229;SDS011;70701;44.452;18.652;2024-03-25T09:31:51;39.00;;;23.20;;
81229;SDS011;70701;44.452;18.652;2024-03-25T09:34:16;43.47;;;24.27;;
81229;SDS011;70701;44.452;18.652;2024-03-25T09:36:42;23.37;;;12.50;;
81229;SDS011;70701;44.452;18.652;2024-03-25T09:39:07;24.33;;;12.33;;
81229;SDS011;70701;44.452;18.652;2024-03-25T09:41:34;23.30;;;12.73;;
81229;SDS011;70701;44.452;18.652;2024-03-25T09:44:02;16.23;;;9.83;;
81229;SDS011;70701;44.452;18.652;2024-03-25T09:46:31;18.03;;;9.63;;
81229;SDS011;70701;44.452;18.652;2024-03-25T09:48:57;20.97;;;10.30;;
81229;SDS011;70701;44.452;18.652;2024-03-25T09:51:23;15.73;;;9.77;;
81229;SDS011;70701;44.452;18.652;2024-03-25T09:53:48;19.80;;;10.70;;
81229;SDS011;70701;44.452;18.652;2024-03-25T09:56:14;15.47;;;10.27;;
81229;SDS011;70701;44.452;18.652;2024-03-25T09:58:40;16.47;;;10.83;;
81229;SDS011;70701;44.452;18.652;2024-03-25T10:01:09;15.77;;;8.73;;
81229;SDS011;70701;44.452;18.652;2024-03-25T10:03:35;13.20;;;7.63;;
81229;SDS011;70701;44.452;18.652;2024-03-25T10:06:01;14.23;;;8.93;;
81229;SDS011;70701;44.452;18.652;2024-03-25T10:08:26;14.77;;;8.50;;
81229;SDS011;70701;44.452;18.652;2024-03-25T10:10:56;14.23;;;8.10;;
81229;SDS011;70701;44.452;18.652;2024-03-25T10:13:26;13.47;;;7.30;;
81229;SDS011;70701;44.452;18.652;2024-03-25T10:15:52;11.27;;;6.67;;
81229;SDS011;70701;44.452;18.652;2024-03-25T10:18:19;14.03;;;7.87;;
81229;SDS011;70701;44.452;18.652;2024-03-25T10:20:49;11.00;;;5.90;;
81229;SDS011;70701;44.452;18.652;2024-03-25T10:25:48;9.37;;;6.30;;
81229;SDS011;70701;44.452;18.652;2024-03-25T10:28:14;8.97;;;5.47;;
81229;SDS011;70701;44.452;18.652;2024-03-25T10:30:40;6.70;;;4.30;;
81229;SDS011;70701;44.452;18.652;2024-03-25T10:33:07;8.00;;;4.00;;
81229;SDS011;70701;44.452;18.652;2024-03-25T10:35:37;10.47;;;5.47;;
81229;SDS011;70701;44.452;18.652;2024-03-25T10:38:09;8.57;;;4.27;;
81229;SDS011;70701;44.452;18.652;2024-03-25T10:40:36;8.40;;;4.50;;
81229;SDS011;70701;44.452;18.652;2024-03-25T10:43:07;11.03;;;5.57;;
81229;SDS011;70701;44.452;18.652;2024-03-25T10:45:34;7.77;;;4.17;;
81229;SDS011;70701;44.452;18.652;2024-03-25T10:48:15;12.37;;;6.60;;
81229;SDS011;70701;44.452;18.652;2024-03-25T10:50:42;9.37;;;4.33;;
81229;SDS011;70701;44.452;18.652;2024-03-25T10:53:08;8.03;;;4.20;;
81229;SDS011;70701;44.452;18.652;2024-03-25T10:55:36;9.57;;;3.90;;
81229;SDS011;70701;44.452;18.652;2024-03-25T10:58:06;10.83;;;5.50;;
81229;SDS011;70701;44.452;18.652;2024-03-25T11:00:33;6.53;;;3.17;;
81229;SDS011;70701;44.452;18.652;2024-03-25T11:03:00;5.07;;;2.33;;
81229;SDS011;70701;44.452;18.652;2024-03-25T11:05:27;6.17;;;3.00;;
81229;SDS011;70701;44.452;18.652;2024-03-25T11:07:54;6.37;;;2.93;;
81229;SDS011;70701;44.452;18.652;2024-03-25T11:10:19;5.43;;;2.23;;
81229;SDS011;70701;44.452;18.652;2024-03-25T11:12:54;6.63;;;3.17;;
81229;SDS011;70701;44.452;18.652;2024-03-25T11:15:19;7.20;;;4.10;;
81229;SDS011;70701;44.452;18.652;2024-03-25T11:17:49;7.87;;;3.47;;
81229;SDS011;70701;44.452;18.652;2024-03-25T11:20:16;5.60;;;2.70;;
81229;SDS011;70701;44.452;18.652;2024-03-25T11:22:48;5.93;;;2.83;;
81229;SDS011;70701;44.452;18.652;2024-03-25T11:25:15;6.53;;;3.40;;
81229;SDS011;70701;44.452;18.652;2024-03-25T11:27:42;6.20;;;2.37;;
81229;SDS011;70701;44.452;18.652;2024-03-25T11:30:09;4.87;;;2.60;;
81229;SDS011;70701;44.452;18.652;2024-03-25T11:32:46;11.30;;;5.43;;
81229;SDS011;70701;44.452;18.652;2024-03-25T11:35:15;7.17;;;3.23;;
81229;SDS011;70701;44.452;18.652;2024-03-25T11:37:41;6.53;;;2.83;;
81229;SDS011;70701;44.452;18.652;2024-03-25T11:40:08;7.40;;;3.40;;
81229;SDS011;70701;44.452;18.652;2024-03-25T11:42:38;9.93;;;4.67;;
81229;SDS011;70701;44.452;18.652;2024-03-25T11:45:07;7.80;;;3.37;;
81229;SDS011;70701;44.452;18.652;2024-03-25T11:47:40;4.63;;;2.03;;
81229;SDS011;70701;44.452;18.652;2024-03-25T11:50:07;6.20;;;3.10;;
81229;SDS011;70701;44.452;18.652;2024-03-25T11:52:33;5.53;;;2.20;;
81229;SDS011;70701;44.452;18.652;2024-03-25T11:54:59;4.13;;;1.73;;
81229;SDS011;70701;44.452;18.652;2024-03-25T11:57:24;3.47;;;1.50;;
81229;SDS011;70701;44.452;18.652;2024-03-25T11:59:50;4.70;;;2.50;;
81229;SDS011;70701;44.452;18.652;2024-03-25T12:02:16;4.93;;;2.10;;
81229;SDS011;70701;44.452;18.652;2024-03-25T12:04:43;8.77;;;3.10;;
81229;SDS011;70701;44.452;18.652;2024-03-25T12:07:13;6.27;;;2.97;;
81229;SDS011;70701;44.452;18.652;2024-03-25T12:09:40;7.37;;;2.77;;
81229;SDS011;70701;44.452;18.652;2024-03-25T12:12:25;6.80;;;3.27;;
81229;SDS011;70701;44.452;18.652;2024-03-25T12:14:51;5.40;;;2.70;;
81229;SDS011;70701;44.452;18.652;2024-03-25T12:17:20;10.77;;;3.43;;
81229;SDS011;70701;44.452;18.652;2024-03-25T12:20:05;6.45;;;3.40;;
81229;SDS011;70701;44.452;18.652;2024-03-25T12:22:41;10.15;;;3.83;;
81229;SDS011;70701;44.452;18.652;2024-03-25T12:25:07;9.80;;;4.05;;
81229;SDS011;70701;44.452;18.652;2024-03-25T12:27:34;9.73;;;4.00;;
81229;SDS011;70701;44.452;18.652;2024-03-25T12:30:03;5.87;;;2.80;;
81229;SDS011;70701;44.452;18.652;2024-03-25T12:32:43;9.10;;;3.40;;
81229;SDS011;70701;44.452;18.652;2024-03-25T12:35:16;8.07;;;3.77;;
81229;SDS011;70701;44.452;18.652;2024-03-25T12:37:45;7.40;;;4.00;;
81229;SDS011;70701;44.452;18.652;2024-03-25T12:40:32;7.17;;;3.20;;
81229;SDS011;70701;44.452;18.652;2024-03-25T12:42:58;5.73;;;2.43;;
81229;SDS011;70701;44.452;18.652;2024-03-25T12:45:23;5.78;;;2.50;;
81229;SDS011;70701;44.452;18.652;2024-03-25T12:47:52;5.77;;;2.80;;
81229;SDS011;70701;44.452;18.652;2024-03-25T12:50:18;11.07;;;4.53;;
81229;SDS011;70701;44.452;18.652;2024-03-25T12:52:49;10.13;;;4.57;;
81229;SDS011;70701;44.452;18.652;2024-03-25T12:55:14;7.40;;;2.80;;
81229;SDS011;70701;44.452;18.652;2024-03-25T12:57:40;5.57;;;2.03;;
81229;SDS011;70701;44.452;18.652;2024-03-25T13:00:07;5.27;;;2.10;;
81229;SDS011;70701;44.452;18.652;2024-03-25T13:02:33;6.57;;;2.40;;
81229;SDS011;70701;44.452;18.652;2024-03-25T13:04:59;5.23;;;2.23;;
81229;SDS011;70701;44.452;18.652;2024-03-25T13:07:25;4.23;;;1.43;;
81229;SDS011;70701;44.452;18.652;2024-03-25T13:09:50;4.53;;;1.43;;
81229;SDS011;70701;44.452;18.652;2024-03-25T13:12:16;4.07;;;1.50;;
81229;SDS011;70701;44.452;18.652;2024-03-25T13:14:41;6.90;;;2.07;;
81229;SDS011;70701;44.452;18.652;2024-03-25T13:17:07;3.33;;;1.63;;
81229;SDS011;70701;44.452;18.652;2024-03-25T13:19:33;5.40;;;1.63;;
81229;SDS011;70701;44.452;18.652;2024-03-25T13:21:59;7.67;;;3.43;;
81229;SDS011;70701;44.452;18.652;2024-03-25T13:24:25;6.47;;;3.37;;
81229;SDS011;70701;44.452;18.652;2024-03-25T13:26:51;5.13;;;2.65;;
81229;SDS011;70701;44.452;18.652;2024-03-25T13:29:17;6.33;;;3.53;;
81229;SDS011;70701;44.452;18.652;2024-03-25T13:31:42;6.93;;;2.23;;
81229;SDS011;70701;44.452;18.652;2024-03-25T13:34:08;6.00;;;2.20;;
81229;SDS011;70701;44.452;18.652;2024-03-25T13:36:33;6.63;;;3.00;;
81229;SDS011;70701;44.452;18.652;2024-03-25T13:38:59;3.70;;;2.00;;
81229;SDS011;70701;44.452;18.652;2024-03-25T13:41:25;5.20;;;2.43;;
81229;SDS011;70701;44.452;18.652;2024-03-25T13:43:50;6.30;;;2.17;;
81229;SDS011;70701;44.452;18.652;2024-03-25T13:46:16;3.33;;;2.20;;
81229;SDS011;70701;44.452;18.652;2024-03-25T13:48:42;3.17;;;1.80;;
81229;SDS011;70701;44.452;18.652;2024-03-25T13:51:07;4.27;;;1.90;;
81229;SDS011;70701;44.452;18.652;2024-03-25T13:53:33;4.90;;;2.27;;
81229;SDS011;70701;44.452;18.652;2024-03-25T13:55:59;8.18;;;3.38;;
81229;SDS011;70701;44.452;18.652;2024-03-25T13:58:26;4.32;;;2.25;;
81229;SDS011;70701;44.452;18.652;2024-03-25T14:00:51;4.03;;;1.83;;
81229;SDS011;70701;44.452;18.652;2024-03-25T14:03:17;4.32;;;2.10;;
81229;SDS011;70701;44.452;18.652;2024-03-25T14:05:43;5.10;;;2.30;;
81229;SDS011;70701;44.452;18.652;2024-03-25T14:08:09;5.38;;;2.35;;
81229;SDS011;70701;44.452;18.652;2024-03-25T14:10:35;4.80;;;2.45;;
81229;SDS011;70701;44.452;18.652;2024-03-25T14:13:01;5.55;;;3.25;;
81229;SDS011;70701;44.452;18.652;2024-03-25T14:15:27;6.28;;;3.22;;
81229;SDS011;70701;44.452;18.652;2024-03-25T14:17:52;12.30;;;6.78;;